Time;durP1;ratioP1;P1;durP2;ratioP2;P2;SDS_P1;SDS_P2;PMS_P1;PMS_P2;Temp;Humidity;BMP_temperature;BMP_pressure;BME280_temperature;BME280_humidity;BME280_pressure;Samples;Min_cycle;Max_cycle;Signal;HPM_P1;HPM_P2
2023/09/09 00:02:00;;;;;;;2.00;0.60;;;;;;;16.20;64.58;100515.63;88581;282;136819;-79
2023/09/09 00:04:04;;;;;;;2.20;0.60;;;;;;;16.16;64.66;100513.84;88891;279;25204;-80
2023/09/09 00:06:13;;;;;;;3.10;0.90;;;;;;;16.15;64.84;100513.64;88831;277;22547;-80
2023/09/09 00:08:21;;;;;;;2.40;0.70;;;;;;;16.15;64.73;100512.45;88654;279;136196;-82
2023/09/09 00:10:23;;;;;;;6.10;0.80;;;;;;;16.14;64.92;100510.97;88842;281;25212;-82
2023/09/09 00:12:24;;;;;;;2.00;0.90;;;;;;;16.15;65.01;100512.56;88700;280;138396;-77
2023/09/09 00:14:29;;;;;;;4.70;0.60;;;;;;;16.16;65.16;100509.20;88798;281;22523;-79
2023/09/09 00:16:34;;;;;;;6.40;0.70;;;;;;;16.15;65.22;100509.30;88773;280;136196;-80
2023/09/09 00:18:36;;;;;;;2.00;0.50;;;;;;;16.15;65.42;100505.37;88935;273;22716;-82
2023/09/09 00:20:40;;;;;;;6.30;0.90;;;;;;;16.19;65.41;100502.31;88816;280;137257;-82
2023/09/09 00:22:42;;;;;;;9.10;1.10;;;;;;;16.18;65.56;100505.88;88811;278;25986;-82
2023/09/09 00:24:44;;;;;;;0.90;0.30;;;;;;;16.17;65.65;100509.61;89976;278;136886;-79
2023/09/09 00:26:46;;;;;;;2.60;0.80;;;;;;;16.16;65.74;100506.14;90191;280;24090;-82
2023/09/09 00:28:48;;;;;;;2.70;0.80;;;;;;;16.14;65.89;100505.06;88892;281;137166;-83
2023/09/09 00:30:50;;;;;;;5.20;0.50;;;;;;;16.13;66.41;100504.98;88909;273;25165;-82
2023/09/09 00:32:52;;;;;;;1.70;0.90;;;;;;;16.13;66.35;100497.66;88639;282;136072;-81
2023/09/09 00:34:54;;;;;;;1.80;0.70;;;;;;;16.14;66.31;100498.77;88758;281;22547;-80
2023/09/09 00:36:56;;;;;;;4.30;1.30;;;;;;;16.13;66.42;100497.73;88638;281;138449;-82
2023/09/09 00:38:59;;;;;;;3.40;0.90;;;;;;;16.13;66.64;100497.13;88747;277;22530;-81
2023/09/09 00:41:16;;;;;;;1.70;0.70;;;;;;;16.12;66.72;100495.00;88683;281;136073;-83
2023/09/09 00:43:18;;;;;;;1.80;1.20;;;;;;;16.06;66.92;100497.14;88982;281;22599;-81
2023/09/09 00:45:20;;;;;;;10.70;6.10;;;;;;;16.02;67.31;100493.33;88792;281;136113;-81
2023/09/09 00:47:25;;;;;;;3.20;1.40;;;;;;;16.00;67.58;100498.39;88766;281;25168;-82
2023/09/09 00:49:27;;;;;;;;;;;;;;;16.00;67.77;100499.23;88769;281;137754;-83
2023/09/09 00:51:31;;;;;;;4.20;0.80;;;;;;;15.98;67.92;100494.11;88263;282;685974;-80
2023/09/09 00:53:35;;;;;;;3.70;0.70;;;;;;;15.92;68.25;100495.94;88993;282;136427;-81
2023/09/09 00:55:40;;;;;;;2.30;0.80;;;;;;;15.91;68.45;100486.27;88927;281;25166;-81
2023/09/09 00:57:42;;;;;;;1.50;0.50;;;;;;;15.91;68.47;100481.80;88818;280;137108;-79
2023/09/09 00:59:46;;;;;;;1.70;0.90;;;;;;;15.93;68.70;100479.70;90119;282;22497;-80
2023/09/09 01:01:48;;;;;;;3.10;0.80;;;;;;;15.91;68.81;100482.25;90240;282;135830;-76
2023/09/09 01:03:53;;;;;;;3.10;0.80;;;;;;;15.89;68.80;100481.66;90037;282;22563;-78
2023/09/09 01:05:56;;;;;;;1.10;0.90;;;;;;;15.93;68.77;100483.42;88860;273;135823;-79
2023/09/09 01:07:58;;;;;;;2.80;0.90;;;;;;;15.93;69.04;100486.99;89147;273;23180;-79
2023/09/09 01:10:00;;;;;;;2.60;0.40;;;;;;;15.90;69.36;100487.67;88874;280;136089;-78
2023/09/09 01:12:03;;;;;;;1.70;0.60;;;;;;;15.86;69.53;100481.96;89083;280;25316;-79
2023/09/09 01:14:06;;;;;;;3.20;0.40;;;;;;;15.82;69.95;100478.35;88948;273;22530;-78
2023/09/09 01:16:08;;;;;;;3.00;0.60;;;;;;;15.83;70.06;100479.14;89039;275;136002;-79
2023/09/09 01:18:10;;;;;;;1.40;0.80;;;;;;;15.82;70.44;100481.88;88686;278;25077;-79
2023/09/09 01:20:15;;;;;;;2.50;0.50;;;;;;;15.80;70.70;100482.30;88466;281;136871;-78
2023/09/09 01:22:18;;;;;;;2.50;0.40;;;;;;;15.78;70.80;100483.42;88668;282;25106;-78
2023/09/09 01:24:20;;;;;;;2.30;0.30;;;;;;;15.79;71.18;100479.80;88660;281;136963;-77
2023/09/09 01:26:22;;;;;;;4.10;0.40;;;;;;;15.79;71.34;100487.61;88766;273;22839;-78
2023/09/09 01:28:24;;;;;;;0.80;0.30;;;;;;;15.78;71.79;100485.41;88785;275;137903;-80
2023/09/09 01:30:25;;;;;;;1.90;0.50;;;;;;;15.76;71.88;100485.85;88934;282;23186;-80
2023/09/09 01:32:27;;;;;;;3.60;0.90;;;;;;;15.74;72.19;100487.23;88857;281;137026;-77
2023/09/09 01:34:29;;;;;;;1.80;0.50;;;;;;;15.73;72.51;100490.98;88731;282;23811;-79
2023/09/09 01:36:31;;;;;;;2.90;0.80;;;;;;;15.71;72.96;100490.71;88800;281;136044;-81
2023/09/09 01:38:35;;;;;;;2.80;0.80;;;;;;;15.69;73.54;100491.78;88837;282;22542;-78
2023/09/09 01:40:37;;;;;;;5.10;0.60;;;;;;;15.71;73.70;100494.88;88792;273;136040;-79
2023/09/09 01:42:41;;;;;;;1.80;0.40;;;;;;;15.68;74.46;100491.30;88815;279;22586;-79
2023/09/09 01:44:45;;;;;;;3.10;0.50;;;;;;;15.65;76.63;100494.42;88632;281;137947;-80
2023/09/09 01:46:47;;;;;;;3.40;1.20;;;;;;;15.66;77.42;100494.80;88723;279;22625;-78
2023/09/09 01:48:50;;;;;;;4.50;0.70;;;;;;;15.67;76.66;100494.30;88693;281;136701;-76
2023/09/09 01:50:52;;;;;;;4.40;0.70;;;;;;;15.67;76.05;100498.42;88817;281;24015;-79
2023/09/09 01:52:55;;;;;;;1.00;0.40;;;;;;;15.68;75.64;100498.11;88927;274;137275;-79
2023/09/09 01:54:56;;;;;;;1.80;0.70;;;;;;;15.69;75.27;100501.45;88858;281;22561;-78
2023/09/09 01:56:58;;;;;;;3.90;0.90;;;;;;;15.69;75.58;100502.36;88767;280;136436;-76
2023/09/09 01:59:00;;;;;;;1.60;0.50;;;;;;;15.67;77.92;100505.08;88758;282;24022;-74
2023/09/09 02:01:02;;;;;;;1.20;0.70;;;;;;;15.64;77.86;100503.86;88653;282;135729;-77
2023/09/09 02:03:03;;;;;;;0.90;0.60;;;;;;;15.59;77.37;100503.48;88810;281;22539;-77
2023/09/09 02:05:09;;;;;;;1.70;0.70;;;;;;;15.55;77.79;100503.92;88665;281;137182;-76
2023/09/09 02:07:11;;;;;;;2.00;0.40;;;;;;;15.49;78.29;100500.95;88743;280;23471;-77
2023/09/09 02:09:13;;;;;;;3.60;0.70;;;;;;;15.45;78.56;100501.16;88575;281;137183;-77
2023/09/09 02:11:15;;;;;;;3.40;1.00;;;;;;;15.43;79.27;100501.31;88773;277;22536;-78
2023/09/09 02:13:16;;;;;;;2.20;0.50;;;;;;;15.42;79.83;100502.02;88696;274;137210;-74
2023/09/09 02:15:18;;;;;;;1.40;0.80;;;;;;;15.42;79.59;100501.06;88643;281;25165;-78
2023/09/09 02:17:20;;;;;;;4.50;0.80;;;;;;;15.45;79.38;100500.25;88646;277;136783;-75
2023/09/09 02:19:21;;;;;;;1.50;0.80;;;;;;;15.47;79.07;100502.23;88955;281;25227;-76
2023/09/09 02:21:23;;;;;;;1.80;0.80;;;;;;;15.44;79.06;100499.48;88839;275;136201;-77
2023/09/09 02:23:25;;;;;;;2.90;1.30;;;;;;;15.42;79.40;100501.28;89021;273;22563;-76
2023/09/09 02:25:27;;;;;;;3.30;0.50;;;;;;;15.39;79.34;100501.34;88432;281;136316;-78
2023/09/09 02:27:28;;;;;;;1.10;0.60;;;;;;;15.34;79.24;100501.23;88940;275;25215;-72
2023/09/09 02:29:30;;;;;;;1.40;0.50;;;;;;;15.29;79.81;100501.80;88477;273;136202;-72
2023/09/09 02:31:32;;;;;;;1.70;0.90;;;;;;;15.26;79.69;100504.05;88537;273;22755;-76
2023/09/09 02:33:34;;;;;;;4.90;1.70;;;;;;;15.25;79.55;100502.45;88689;277;136727;-76
2023/09/09 02:35:41;;;;;;;2.00;0.40;;;;;;;15.24;79.67;100505.91;88911;281;22531;-72
2023/09/09 02:37:43;;;;;;;3.10;0.80;;;;;;;15.22;79.73;100507.14;88531;273;138073;-78
2023/09/09 02:39:46;;;;;;;6.50;0.80;;;;;;;15.18;79.67;100508.84;88627;281;24014;-79
2023/09/09 02:41:51;;;;;;;2.90;0.80;;;;;;;15.15;79.76;100514.15;88485;281;138116;-79
2023/09/09 02:43:52;;;;;;;6.00;1.10;;;;;;;15.12;79.24;100521.71;88511;281;22520;-76
2023/09/09 02:45:55;;;;;;;5.00;1.00;;;;;;;15.11;79.03;100521.11;89140;281;136548;-79
2023/09/09 02:47:58;;;;;;;2.80;0.50;;;;;;;15.14;78.81;100524.31;88603;277;23256;-74
2023/09/09 02:50:00;;;;;;;8.00;0.70;;;;;;;15.16;78.11;100524.29;88405;274;135965;-74
2023/09/09 02:52:03;;;;;;;5.00;0.60;;;;;;;15.17;77.95;100527.06;88553;273;24049;-74
2023/09/09 02:54:04;;;;;;;3.80;1.10;;;;;;;15.11;77.37;100516.11;88569;275;25181;-70
2023/09/09 02:56:06;;;;;;;2.00;0.70;;;;;;;15.18;77.45;100529.60;88412;274;137198;-76
2023/09/09 02:58:12;;;;;;;1.40;0.60;;;;;;;15.17;77.43;100532.06;88529;275;22531;-76
2023/09/09 03:00:15;;;;;;;4.00;1.00;;;;;;;15.16;77.52;100540.86;88374;274;136874;-80
2023/09/09 03:02:16;;;;;;;3.30;0.80;;;;;;;15.15;77.63;100543.71;88477;281;25322;-73
2023/09/09 03:04:21;;;;;;;1.00;0.60;;;;;;;15.11;77.77;100536.89;88398;277;137020;-72
2023/09/09 03:06:23;;;;;;;1.00;0.60;;;;;;;15.07;77.83;100543.75;88465;275;25136;-72
2023/09/09 03:08:25;;;;;;;3.20;1.10;;;;;;;15.04;77.70;100545.01;88347;273;137145;-75
2023/09/09 03:10:26;;;;;;;4.40;1.20;;;;;;;15.03;77.73;100548.39;88389;282;25245;-73
2023/09/09 03:12:28;;;;;;;4.10;0.60;;;;;;;15.00;77.69;100551.41;88364;273;136680;-77
2023/09/09 03:14:31;;;;;;;1.60;1.10;;;;;;;14.95;78.05;100550.40;88495;273;22613;-74
2023/09/09 03:16:33;;;;;;;1.60;0.40;;;;;;;14.90;78.16;100547.15;88597;281;137599;-73
2023/09/09 03:18:35;;;;;;;0.80;0.60;;;;;;;14.85;78.40;100550.67;88857;275;25295;-75
2023/09/09 03:20:37;;;;;;;2.10;0.50;;;;;;;14.82;78.53;100549.62;88608;274;137431;-77
2023/09/09 03:22:39;;;;;;;6.20;1.00;;;;;;;14.81;78.57;100546.58;88489;282;24069;-73
2023/09/09 03:24:42;;;;;;;1.30;0.80;;;;;;;14.79;78.78;100547.32;88419;277;136855;-80
2023/09/09 03:26:44;;;;;;;4.00;0.90;;;;;;;14.78;78.59;100552.15;88506;281;22527;-75
2023/09/09 03:28:46;;;;;;;2.00;0.80;;;;;;;14.76;78.87;100554.21;88415;281;136888;-79
2023/09/09 03:31:00;;;;;;;2.80;1.10;;;;;;;14.76;78.97;100558.63;88444;280;23510;-79
2023/09/09 03:33:04;;;;;;;3.30;0.60;;;;;;;14.74;78.96;100562.95;88429;282;138253;-78
2023/09/09 03:35:08;;;;;;;1.30;0.60;;;;;;;14.70;78.98;100574.21;88710;277;23113;-76
2023/09/09 03:37:10;;;;;;;3.70;0.90;;;;;;;14.61;79.51;100578.19;88369;274;136104;-74
2023/09/09 03:39:13;;;;;;;1.00;0.70;;;;;;;14.51;79.95;100574.25;88451;274;22540;-73
2023/09/09 03:41:14;;;;;;;4.00;1.00;;;;;;;14.42;80.50;100573.80;88357;274;141601;-76
2023/09/09 03:43:16;;;;;;;1.70;0.70;;;;;;;14.38;80.78;100572.45;88397;282;25252;-75
2023/09/09 03:45:19;;;;;;;1.90;0.60;;;;;;;14.38;81.26;100569.35;88106;279;136990;-76
2023/09/09 03:47:21;;;;;;;5.30;0.90;;;;;;;14.39;81.39;100570.48;88383;275;24173;-72
2023/09/09 03:49:23;;;;;;;2.00;0.90;;;;;;;14.42;81.40;100571.38;88417;280;136884;-72
2023/09/09 03:51:25;;;;;;;1.80;1.10;;;;;;;14.48;81.38;100570.67;88479;273;24023;-74
2023/09/09 03:53:27;;;;;;;2.70;0.90;;;;;;;14.59;81.13;100577.29;88277;278;137707;-74
2023/09/09 03:55:29;;;;;;;5.40;1.40;;;;;;;14.73;80.66;100578.41;88534;279;22566;-80
2023/09/09 03:57:31;;;;;;;2.80;1.00;;;;;;;14.86;79.92;100579.01;88415;273;136994;-84
2023/09/09 03:59:33;;;;;;;4.20;1.00;;;;;;;14.97;79.22;100580.38;89044;281;24052;-76
2023/09/09 04:01:36;;;;;;;2.60;0.90;;;;;;;15.07;78.95;100576.98;88422;273;136312;-69
2023/09/09 04:03:39;;;;;;;4.80;0.90;;;;;;;15.23;78.00;100574.00;88425;273;23953;-73
2023/09/09 04:05:43;;;;;;;3.90;1.00;;;;;;;15.46;77.15;100576.86;88384;275;137252;-71
2023/09/09 04:07:46;;;;;;;3.20;0.90;;;;;;;15.75;76.31;100572.59;88925;273;25297;-73
2023/09/09 04:09:49;;;;;;;3.80;1.00;;;;;;;16.05;75.03;100573.50;88631;275;139542;-71
2023/09/09 04:11:52;;;;;;;3.30;1.00;;;;;;;16.38;73.94;100569.46;88387;275;25233;-73
2023/09/09 04:13:54;;;;;;;3.20;0.90;;;;;;;16.78;72.24;100573.31;88614;281;136983;-72
2023/09/09 04:15:58;;;;;;;2.70;0.80;;;;;;;17.12;69.58;100583.47;88413;273;25164;-77
2023/09/09 04:18:00;;;;;;;;;;;;;;;17.33;67.81;100585.77;88825;273;137396;-75
2023/09/09 04:20:03;;;;;;;2.30;1.00;;;;;;;17.36;66.59;100586.40;88292;278;123136;-70
2023/09/09 04:22:05;;;;;;;3.40;0.80;;;;;;;17.20;66.82;100587.06;88837;281;22533;-75
2023/09/09 04:24:07;;;;;;;1.90;0.80;;;;;;;17.13;67.10;100582.42;88778;281;136699;-74
2023/09/09 04:26:08;;;;;;;1.60;0.50;;;;;;;17.21;66.67;100583.84;88382;283;24717;-77
2023/09/09 04:28:11;;;;;;;0.80;0.50;;;;;;;17.43;65.73;100584.27;88751;279;136275;-72
2023/09/09 04:30:13;;;;;;;2.10;0.70;;;;;;;17.63;65.24;100581.32;88556;277;22542;-81
2023/09/09 04:32:15;;;;;;;4.70;0.60;;;;;;;17.93;63.65;100581.85;88270;274;136215;-72
2023/09/09 04:34:17;;;;;;;5.10;0.50;;;;;;;18.16;62.48;100583.23;88405;275;22157;-74
2023/09/09 04:36:19;;;;;;;1.20;0.50;;;;;;;18.34;61.62;100579.98;88439;280;136568;-73
2023/09/09 04:38:23;;;;;;;4.90;1.00;;;;;;;18.54;60.46;100585.29;88489;275;22544;-75
2023/09/09 04:40:26;;;;;;;3.40;0.50;;;;;;;18.77;59.47;100583.34;88524;277;136125;-77
2023/09/09 04:42:28;;;;;;;1.80;0.50;;;;;;;19.01;58.56;100584.37;88471;274;24087;-76
2023/09/09 04:44:30;;;;;;;1.70;0.50;;;;;;;19.27;57.14;100587.16;89074;273;137344;-74
2023/09/09 04:46:32;;;;;;;6.30;0.80;;;;;;;19.43;56.56;100590.81;89721;274;23886;-75
2023/09/09 04:48:34;;;;;;;1.00;0.70;;;;;;;19.60;55.86;100593.30;88436;275;136223;-74
2023/09/09 04:50:36;;;;;;;1.70;0.70;;;;;;;19.64;54.94;100589.16;88494;274;24200;-76
2023/09/09 04:54:18;;;;;;;1.90;0.60;;;;;;;19.64;55.24;100603.38;86873;305;625834;-76
2023/09/09 04:56:20;;;;;;;0.90;0.40;;;;;;;19.69;54.86;100604.45;87850;290;135759;-76
2023/09/09 04:58:22;;;;;;;2.50;0.60;;;;;;;19.79;54.49;100603.20;87975;289;22703;-80
2023/09/09 05:00:24;;;;;;;2.50;1.10;;;;;;;19.93;53.90;100605.34;87927;282;135369;-79
2023/09/09 05:02:26;;;;;;;10.90;0.70;;;;;;;20.04;53.28;100606.95;88003;287;25197;-72
2023/09/09 05:04:28;;;;;;;5.90;0.80;;;;;;;20.11;52.91;100608.45;87893;287;135996;-79
2023/09/09 05:06:30;;;;;;;1.50;0.30;;;;;;;20.17;52.70;100607.76;88105;283;22654;-79
2023/09/09 05:08:32;;;;;;;1.50;0.70;;;;;;;20.24;52.55;100608.30;87492;289;633920;-72
2023/09/09 05:10:34;;;;;;;2.40;0.70;;;;;;;20.40;51.44;100603.53;88056;289;22543;-74
2023/09/09 05:12:37;;;;;;;3.60;0.40;;;;;;;20.44;51.19;100605.75;88077;284;137098;-77
2023/09/09 05:14:40;;;;;;;4.70;0.50;;;;;;;20.45;51.09;100610.58;88299;282;22553;-77
2023/09/09 05:16:42;;;;;;;2.10;0.80;;;;;;;20.54;50.84;100617.20;88165;278;136194;-73
2023/09/09 05:18:46;;;;;;;1.10;0.90;;;;;;;20.64;50.70;100614.24;88253;287;22602;-70
2023/09/09 05:20:48;;;;;;;4.30;1.00;;;;;;;20.78;50.59;100613.91;89681;285;136042;-73
2023/09/09 05:22:50;;;;;;;3.10;0.60;;;;;;;20.96;50.33;100609.01;90047;285;24312;-76
2023/09/09 05:24:52;;;;;;;4.70;0.50;;;;;;;21.24;48.80;100615.80;89672;285;138966;-75
2023/09/09 05:26:54;;;;;;;1.40;0.40;;;;;;;21.32;48.38;100622.73;88489;285;25160;-77
2023/09/09 05:28:56;;;;;;;1.30;0.70;;;;;;;21.34;48.41;100629.59;88281;287;135847;-73
2023/09/09 05:30:58;;;;;;;3.20;0.70;;;;;;;21.34;48.44;100632.30;88295;278;22537;-74
2023/09/09 05:33:00;;;;;;;2.00;0.70;;;;;;;21.28;48.61;100645.02;88157;285;135991;-75
2023/09/09 05:35:03;;;;;;;5.80;0.70;;;;;;;21.06;48.68;100646.59;88153;278;22633;-73
2023/09/09 05:37:05;;;;;;;4.20;1.00;;;;;;;20.65;49.49;100648.27;90973;285;135949;-74
2023/09/09 05:39:07;;;;;;;4.80;0.80;;;;;;;20.00;50.88;100655.08;89893;286;25300;-70
2023/09/09 05:41:09;;;;;;;3.20;0.70;;;;;;;19.31;52.66;100654.92;88115;278;135988;-73
2023/09/09 05:43:11;;;;;;;2.40;0.90;;;;;;;18.67;54.69;100649.06;88246;285;22543;-71
2023/09/09 05:45:16;;;;;;;2.50;1.40;;;;;;;18.30;56.53;100656.53;88167;285;135657;-76
2023/09/09 05:47:17;;;;;;;3.40;1.00;;;;;;;17.98;58.07;100657.38;88663;287;22615;-74
2023/09/09 05:49:19;;;;;;;1.50;0.90;;;;;;;17.78;59.02;100657.73;88338;281;135947;-66
2023/09/09 05:51:39;;;;;;;2.50;0.80;;;;;;;17.68;59.86;100656.79;88424;281;23719;-69
2023/09/09 05:53:41;;;;;;;5.10;1.60;;;;;;;17.70;60.52;100656.87;88310;274;135979;-76
2023/09/09 05:55:43;;;;;;;1.20;0.60;;;;;;;17.73;60.80;100660.95;88652;278;22563;-78
2023/09/09 05:57:45;;;;;;;1.50;0.90;;;;;;;17.72;61.22;100661.40;88560;282;135507;-70
2023/09/09 05:59:47;;;;;;;4.30;1.00;;;;;;;17.66;61.11;100661.34;88575;280;22375;-73
2023/09/09 06:01:50;;;;;;;4.70;1.00;;;;;;;17.62;61.53;100665.13;88497;273;135980;-77
2023/09/09 06:03:54;;;;;;;3.30;0.50;;;;;;;17.65;61.93;100667.09;88640;272;22527;-72
2023/09/09 06:05:57;;;;;;;3.60;1.00;;;;;;;17.70;62.17;100666.59;88537;280;136279;-76
2023/09/09 06:07:59;;;;;;;4.40;1.10;;;;;;;17.86;62.00;100670.27;88535;281;22620;-74
2023/09/09 06:10:00;;;;;;;2.60;0.70;;;;;;;18.10;60.95;100657.91;89076;281;135890;-77
2023/09/09 06:12:03;;;;;;;2.60;0.50;;;;;;;18.68;59.70;100672.19;88594;281;24089;-73
2023/09/09 06:14:07;;;;;;;3.40;0.70;;;;;;;19.37;57.64;100672.48;88887;273;22823;-81
2023/09/09 06:16:09;;;;;;;1.40;0.80;;;;;;;20.10;55.44;100677.65;88837;281;135666;-74
2023/09/09 06:18:11;;;;;;;6.20;0.60;;;;;;;20.77;52.48;100670.27;88866;274;22713;-76
2023/09/09 06:20:14;;;;;;;2.50;0.30;;;;;;;21.28;51.13;100668.84;88852;281;135736;-79
2023/09/09 06:22:16;;;;;;;3.10;0.70;;;;;;;21.79;49.48;100673.31;89026;281;23869;-75
2023/09/09 06:24:17;;;;;;;2.10;0.80;;;;;;;22.24;48.19;100674.95;88683;281;136101;-74
2023/09/09 06:26:20;;;;;;;0.90;0.50;;;;;;;22.60;46.83;100675.17;88745;277;24624;-80
2023/09/09 06:28:22;;;;;;;0.90;0.50;;;;;;;22.69;46.24;100679.09;88768;283;135944;-74
2023/09/09 06:30:24;;;;;;;4.50;0.40;;;;;;;22.83;45.70;100676.56;89114;282;22532;-74
2023/09/09 06:32:27;;;;;;;0.60;0.40;;;;;;;23.05;45.06;100676.24;88707;274;135439;-72
2023/09/09 06:34:29;;;;;;;0.70;0.20;;;;;;;23.26;44.08;100682.67;88852;280;23274;-77
2023/09/09 06:36:31;;;;;;;2.30;0.40;;;;;;;23.32;43.47;100680.64;88598;275;135679;-83
2023/09/09 06:38:33;;;;;;;2.60;0.40;;;;;;;23.40;43.63;100674.64;88408;274;22542;-72
2023/09/09 06:40:35;;;;;;;2.50;0.40;;;;;;;23.47;42.78;100693.05;88698;277;135650;-73
2023/09/09 06:42:36;;;;;;;3.80;0.60;;;;;;;23.26;42.96;100696.33;88777;274;25114;-72
2023/09/09 06:44:39;;;;;;;2.00;0.50;;;;;;;23.09;42.94;100697.15;88893;281;135547;-86
2023/09/09 06:46:41;;;;;;;2.40;0.60;;;;;;;22.97;43.04;100707.48;88782;278;22536;-78
2023/09/09 06:48:43;;;;;;;4.30;0.50;;;;;;;22.74;43.19;100694.83;88660;275;136072;-74
2023/09/09 06:50:48;;;;;;;3.40;0.60;;;;;;;22.57;43.76;100705.63;89052;278;22707;-80
2023/09/09 06:52:50;;;;;;;3.20;0.30;;;;;;;22.30;44.40;100708.68;88730;278;135748;-72
2023/09/09 06:54:52;;;;;;;0.50;0.20;;;;;;;22.03;44.92;100711.13;88847;277;22523;-76
2023/09/09 06:56:53;;;;;;;2.10;0.60;;;;;;;21.76;45.61;100705.09;88491;275;135964;-72
2023/09/09 06:58:55;;;;;;;1.40;0.40;;;;;;;21.40;46.95;100704.58;88411;281;22524;-77
2023/09/09 07:00:57;;;;;;;1.40;0.40;;;;;;;20.93;48.19;100703.09;88378;273;135957;-77
2023/09/09 07:02:59;;;;;;;0.70;0.40;;;;;;;20.50;49.54;100707.86;88672;275;22547;-76
2023/09/09 07:05:03;;;;;;;2.10;0.50;;;;;;;20.25;50.61;100714.20;88351;274;136020;-74
2023/09/09 07:07:05;;;;;;;3.00;0.30;;;;;;;20.03;50.95;100704.39;89294;280;24718;-72
2023/09/09 07:09:15;;;;;;;1.10;0.50;;;;;;;19.91;51.01;100717.09;89366;277;136172;-73
2023/09/09 07:11:16;;;;;;;1.80;0.60;;;;;;;19.82;51.05;100722.85;89136;280;25245;-76
2023/09/09 07:13:21;;;;;;;2.70;0.40;;;;;;;19.78;51.09;100725.75;89123;280;136561;-72
2023/09/09 07:15:22;;;;;;;2.50;0.30;;;;;;;19.72;50.95;100724.90;89307;274;24034;-77
2023/09/09 07:17:24;;;;;;;2.70;0.40;;;;;;;19.58;51.10;100726.14;88306;278;136628;-71
2023/09/09 07:19:26;;;;;;;1.70;0.30;;;;;;;19.46;50.92;100738.70;88802;282;22527;-78
2023/09/09 07:21:27;;;;;;;2.50;0.20;;;;;;;19.31;50.74;100744.70;88577;280;136852;-73
2023/09/09 07:23:29;;;;;;;3.50;0.20;;;;;;;19.16;51.15;100741.06;88520;273;24241;-75
2023/09/09 07:25:33;;;;;;;1.30;0.30;;;;;;;19.06;51.82;100737.16;88406;281;136998;-71
2023/09/09 07:27:35;;;;;;;1.50;0.20;;;;;;;19.02;51.95;100740.85;88547;281;22533;-72
2023/09/09 07:29:37;;;;;;;1.90;0.40;;;;;;;18.98;51.88;100747.20;88386;281;135815;-71
2023/09/09 07:31:39;;;;;;;1.70;0.10;;;;;;;18.92;52.21;100747.05;88450;273;22525;-72
2023/09/09 07:33:43;;;;;;;1.50;0.20;;;;;;;18.86;52.56;100755.22;88519;273;136752;-72
2023/09/09 07:35:45;;;;;;;2.10;0.30;;;;;;;18.83;52.61;100747.97;88661;281;25080;-74
2023/09/09 07:37:47;;;;;;;1.20;0.20;;;;;;;18.86;53.02;100752.19;88574;273;135690;-75
2023/09/09 07:39:52;;;;;;;0.60;0.20;;;;;;;18.89;52.54;100754.70;88444;273;22534;-70
2023/09/09 07:41:55;;;;;;;1.30;0.20;;;;;;;18.92;52.66;100753.46;88322;274;135901;-78
2023/09/09 07:43:56;;;;;;;0.90;0.10;;;;;;;18.93;52.71;100748.30;88437;273;25117;-73
2023/09/09 07:45:58;;;;;;;0.80;0.10;;;;;;;18.97;52.31;100744.73;88394;277;135859;-74
2023/09/09 07:48:00;;;;;;;6.20;0.20;;;;;;;19.01;51.99;100750.56;88352;277;22912;-69
2023/09/09 07:50:02;;;;;;;1.20;0.30;;;;;;;19.06;50.97;100761.27;88307;277;135959;-72
2023/09/09 07:52:05;;;;;;;2.10;0.30;;;;;;;19.08;50.94;100749.16;88467;277;136286;-71
2023/09/09 07:54:07;;;;;;;2.90;0.20;;;;;;;19.12;51.10;100759.39;88413;273;24020;-73
2023/09/09 07:56:09;;;;;;;2.20;0.20;;;;;;;19.18;51.10;100763.39;88322;273;137739;-70
2023/09/09 07:58:11;;;;;;;1.10;0.30;;;;;;;19.20;51.18;100754.09;88422;280;22710;-74
2023/09/09 08:00:13;;;;;;;1.00;0.30;;;;;;;19.25;50.53;100756.63;88369;273;136315;-67
2023/09/09 08:02:15;;;;;;;1.80;0.20;;;;;;;19.30;50.10;100756.45;88473;273;25097;-69
2023/09/09 08:04:17;;;;;;;1.90;0.10;;;;;;;19.36;49.86;100754.64;88374;273;136516;-73
2023/09/09 08:06:19;;;;;;;3.20;0.10;;;;;;;19.40;49.47;100755.23;88489;273;22540;-74
2023/09/09 08:08:21;;;;;;;1.50;0.20;;;;;;;19.41;48.67;100764.05;88386;281;136691;-77
2023/09/09 08:10:23;;;;;;;3.40;0.10;;;;;;;19.36;48.87;100767.89;88424;273;22535;-72
2023/09/09 08:12:25;;;;;;;0.80;0.20;;;;;;;19.32;48.70;100767.64;88455;277;135946;-73
2023/09/09 08:14:27;;;;;;;1.30;0.20;;;;;;;19.28;46.76;100770.24;88489;273;24421;-73
2023/09/09 08:16:30;;;;;;;0.60;0.10;;;;;;;19.24;45.44;100776.88;88402;273;136171;-72
2023/09/09 08:18:34;;;;;;;1.50;0.20;;;;;;;19.23;45.36;100767.13;88457;277;24975;-71
2023/09/09 08:20:36;;;;;;;5.10;0.20;;;;;;;19.25;45.23;100770.51;88411;273;136196;-71
2023/09/09 08:22:38;;;;;;;1.30;0.20;;;;;;;19.26;45.16;100761.13;88805;281;24062;-73
2023/09/09 08:24:40;;;;;;;1.30;0.10;;;;;;;19.29;45.31;100768.73;88435;278;137417;-77
2023/09/09 08:26:41;;;;;;;1.10;0.30;;;;;;;19.31;45.36;100764.16;88425;278;25103;-72
2023/09/09 08:28:43;;;;;;;0.70;0.20;;;;;;;19.39;45.32;100768.52;88388;273;136638;-71
2023/09/09 08:30:45;;;;;;;1.20;0.10;;;;;;;19.49;44.62;100760.48;88425;281;22546;-71
2023/09/09 08:32:49;;;;;;;1.10;0.20;;;;;;;19.60;44.26;100762.25;88378;273;137634;-73
2023/09/09 08:34:53;;;;;;;0.60;0.10;;;;;;;19.73;43.48;100775.52;88543;273;22528;-74
2023/09/09 08:36:55;;;;;;;4.50;0.20;;;;;;;19.83;42.24;100782.84;88530;273;136170;-70
2023/09/09 08:38:57;;;;;;;2.70;0.60;;;;;;;19.85;42.19;100767.55;88501;282;22531;-71
2023/09/09 08:41:13;;;;;;;0.80;0.20;;;;;;;19.87;42.62;100783.77;88452;274;137216;-71
2023/09/09 08:43:28;;;;;;;1.40;0.20;;;;;;;19.89;42.78;100775.59;88469;277;24912;-76
2023/09/09 08:45:52;;;;;;;6.40;0.40;;;;;;;19.92;43.01;100773.21;88435;282;136134;-74
2023/09/09 08:47:56;;;;;;;0.30;0.10;;;;;;;19.98;42.54;100769.81;88483;277;22577;-72
2023/09/09 08:49:59;;;;;;;0.80;0.10;;;;;;;20.06;42.16;100780.70;88476;273;136110;-72
2023/09/09 08:52:06;;;;;;;0.70;0.10;;;;;;;20.13;41.98;100790.34;88772;278;23991;-72
2023/09/09 08:54:10;;;;;;;2.20;0.30;;;;;;;20.15;41.91;100782.42;88553;274;23865;-72
2023/09/09 08:56:13;;;;;;;2.00;0.10;;;;;;;20.15;41.63;100782.55;88450;281;136522;-71
2023/09/09 08:58:15;;;;;;;5.30;0.20;;;;;;;20.14;41.51;100782.04;88477;281;22806;-74
2023/09/09 09:00:18;;;;;;;0.50;0.20;;;;;;;20.09;41.92;100793.96;88362;277;136129;-71
2023/09/09 09:02:21;;;;;;;0.70;0.10;;;;;;;20.04;41.51;100788.66;88792;281;22532;-71
2023/09/09 09:04:23;;;;;;;1.30;0.20;;;;;;;19.95;41.60;100785.12;88424;281;135952;-72
2023/09/09 09:06:27;;;;;;;0.60;0.10;;;;;;;19.88;41.39;100787.48;88536;274;22599;-80
2023/09/09 09:08:34;;;;;;;1.20;0.10;;;;;;;19.83;42.06;100792.66;88396;278;136394;-74
2023/09/09 09:10:42;;;;;;;0.90;0.10;;;;;;;19.71;42.78;100791.86;88819;274;22526;-74
2023/09/09 09:12:44;;;;;;;4.00;0.20;;;;;;;19.65;42.76;100792.70;88622;274;136627;-77
2023/09/09 09:14:47;;;;;;;1.00;0.20;;;;;;;19.63;42.95;100786.16;88532;277;22538;-77
2023/09/09 09:16:50;;;;;;;4.10;0.20;;;;;;;19.66;42.83;100793.25;88451;273;136684;-77
2023/09/09 09:18:52;;;;;;;1.60;0.10;;;;;;;19.72;42.86;100787.95;88732;277;24725;-72
2023/09/09 09:21:05;;;;;;;3.80;0.20;;;;;;;19.78;42.82;100792.79;88357;278;136180;-71
2023/09/09 09:23:13;;;;;;;1.30;0.40;;;;;;;19.80;42.69;100797.15;88638;275;26008;-72
2023/09/09 09:25:20;;;;;;;0.40;0.20;;;;;;;19.76;42.76;100787.92;88418;278;137832;-72
2023/09/09 09:27:21;;;;;;;1.40;0.20;;;;;;;19.75;42.72;100789.97;88658;274;25159;-72
2023/09/09 09:29:23;;;;;;;4.00;0.30;;;;;;;19.76;42.60;100792.09;88505;274;136201;-72
2023/09/09 09:31:27;;;;;;;1.00;0.10;;;;;;;19.78;42.72;100794.79;88818;274;22539;-71
2023/09/09 09:33:30;;;;;;;0.80;0.10;;;;;;;19.84;42.68;100798.09;88361;281;136139;-72
2023/09/09 09:35:36;;;;;;;2.50;0.10;;;;;;;19.92;42.47;100789.44;88535;274;25741;-73
2023/09/09 09:37:38;;;;;;;0.60;0.20;;;;;;;19.97;42.57;100790.52;88520;281;136081;-71